Time,TemperatureF,DewpointF,PressureIn,WindDirection,WindDirectionDegrees,WindSpeedMPH,WindSpeedGustMPH,Humidity,HourlyPrecipIn,Conditions,Clouds,dailyrainin,SoftwareType,DateUTC
2013-02-19 00:02:00,31.9,21.4,29.63,NW,315,0.0,0.7,65,0.00,,,0.00,WUHU216HW,2013-02-19 07:02:00,
2013-02-19 00:12:00,31.9,21.4,29.63,NW,315,0.0,0.0,65,0.00,,,0.00,WUHU216HW,2013-02-19 07:12:00,
2013-02-19 00:23:00,31.7,21.2,29.63,South,180,0.0,1.1,65,0.00,,,0.00,WUHU216HW,2013-02-19 07:23:00,
2013-02-19 00:33:00,31.5,21.4,29.63,ESE,113,0.9,1.1,66,0.00,,,0.00,WUHU216HW,2013-02-19 07:33:00,
2013-02-19 00:43:00,31.3,21.2,29.63,SE,135,1.3,1.8,66,0.00,,,0.00,WUHU216HW,2013-02-19 07:43:00,
2013-02-19 00:54:00,31.3,21.2,29.63,SE,135,1.1,1.8,66,0.00,,,0.00,WUHU216HW,2013-02-19 07:54:00,
2013-02-19 01:05:00,31.3,21.2,29.62,East,90,0.4,1.3,66,0.00,,,0.00,WUHU216HW,2013-02-19 08:05:00,
2013-02-19 01:15:00,31.3,21.2,29.62,SE,135,0.4,0.9,66,0.00,,,0.00,WUHU216HW,2013-02-19 08:15:00,
2013-02-19 01:25:00,31.3,21.2,29.62,East,90,0.4,0.9,66,0.00,,,0.00,WUHU216HW,2013-02-19 08:25:00,
2013-02-19 01:36:00,31.3,21.2,29.62,East,90,0.4,0.9,66,0.00,,,0.00,WUHU216HW,2013-02-19 08:36:00,
2013-02-19 01:46:00,31.0,20.9,29.61,ESE,113,0.7,0.9,66,0.00,,,0.00,WUHU216HW,2013-02-19 08:46:00,
2013-02-19 01:56:00,31.0,20.9,29.61,East,90,1.1,1.3,66,0.00,,,0.00,WUHU216HW,2013-02-19 08:56:00,
2013-02-19 02:07:00,31.0,21.2,29.61,ESE,113,0.9,1.1,67,0.00,,,0.00,WUHU216HW,2013-02-19 09:07:00,
2013-02-19 02:17:00,30.8,21.1,29.61,SE,135,1.6,2.0,67,0.00,,,0.00,WUHU216HW,2013-02-19 09:17:00,
2013-02-19 02:27:00,30.8,21.1,29.61,SE,135,1.3,1.3,67,0.00,,,0.00,WUHU216HW,2013-02-19 09:27:00,
2013-02-19 02:37:00,30.8,21.1,29.60,ESE,113,1.1,1.3,67,0.00,,,0.00,WUHU216HW,2013-02-19 09:37:00,
2013-02-19 02:47:00,30.8,21.4,29.60,ESE,113,0.0,0.9,68,0.00,,,0.00,WUHU216HW,2013-02-19 09:47:00,
2013-02-19 02:58:00,30.8,21.4,29.60,ESE,113,0.0,0.4,68,0.00,,,0.00,WUHU216HW,2013-02-19 09:58:00,
2013-02-19 03:08:00,30.6,21.2,29.59,ESE,113,0.0,0.0,68,0.00,,,0.00,WUHU216HW,2013-02-19 10:08:00,
2013-02-19 03:18:00,30.6,21.2,29.59,SSE,158,0.0,0.4,68,0.00,,,0.00,WUHU216HW,2013-02-19 10:18:00,
2013-02-19 03:29:00,30.6,21.6,29.59,SSE,158,0.0,0.2,69,0.00,,,0.00,WUHU216HW,2013-02-19 10:29:00,
2013-02-19 03:40:00,30.6,21.6,29.59,SSE,158,0.0,0.0,69,0.00,,,0.00,WUHU216HW,2013-02-19 10:40:00,
2013-02-19 03:50:00,30.2,21.2,29.58,SE,135,1.1,1.1,69,0.00,,,0.00,WUHU216HW,2013-02-19 10:50:00,
2013-02-19 04:00:00,30.1,21.1,29.58,ESE,113,1.6,1.6,69,0.00,,,0.00,WUHU216HW,2013-02-19 11:00:00,
2013-02-19 04:11:00,29.9,20.9,29.58,ESE,113,0.0,1.1,69,0.00,,,0.00,WUHU216HW,2013-02-19 11:11:00,
2013-02-19 04:21:00,29.9,20.9,29.58,ESE,113,0.0,0.4,69,0.00,,,0.00,WUHU216HW,2013-02-19 11:21:00,
2013-02-19 04:31:00,29.7,20.8,29.58,ESE,113,0.4,0.4,69,0.00,,,0.00,WUHU216HW,2013-02-19 11:31:00,
2013-02-19 04:41:00,29.5,21.0,29.57,SE,135,1.8,2.0,70,0.00,,,0.00,WUHU216HW,2013-02-19 11:41:00,
2013-02-19 04:52:00,29.3,20.8,29.57,East,90,1.1,1.1,70,0.00,,,0.00,WUHU216HW,2013-02-19 11:52:00,
2013-02-19 05:03:00,29.2,20.6,29.57,North,0,0.0,0.7,70,0.00,,,0.00,WUHU216HW,2013-02-19 12:03:00,
2013-02-19 05:13:00,29.2,20.6,29.57,North,0,0.0,0.0,70,0.00,,,0.00,WUHU216HW,2013-02-19 12:13:00,
2013-02-19 05:23:00,29.0,20.4,29.57,North,0,0.0,0.0,70,0.00,,,0.00,WUHU216HW,2013-02-19 12:23:00,
2013-02-19 05:33:00,28.8,20.4,29.57,North,0,0.0,0.0,70,0.00,,,0.00,WUHU216HW,2013-02-19 12:33:00,
2013-02-19 05:44:00,28.8,20.6,29.57,NNE,23,0.0,0.4,71,0.00,,,0.00,WUHU216HW,2013-02-19 12:44:00,
2013-02-19 05:54:00,28.6,20.4,29.57,NNE,23,0.0,0.4,71,0.00,,,0.00,WUHU216HW,2013-02-19 12:54:00,
2013-02-19 06:04:00,28.6,20.8,29.56,South,180,0.0,0.9,72,0.00,,,0.00,WUHU216HW,2013-02-19 13:04:00,
2013-02-19 06:14:00,28.6,20.8,29.56,South,180,0.0,0.2,72,0.00,,,0.00,WUHU216HW,2013-02-19 13:14:00,
2013-02-19 06:25:00,28.8,20.9,29.56,SSW,203,0.2,0.4,72,0.00,,,0.00,WUHU216HW,2013-02-19 13:25:00,
2013-02-19 06:36:00,28.8,20.9,29.55,SSW,203,0.0,0.2,72,0.00,,,0.00,WUHU216HW,2013-02-19 13:36:00,
2013-02-19 06:46:00,28.8,20.9,29.55,SSE,158,0.2,0.4,72,0.00,,,0.00,WUHU216HW,2013-02-19 13:46:00,
2013-02-19 06:57:00,28.8,21.3,29.55,SSE,158,0.4,0.4,73,0.00,,,0.00,WUHU216HW,2013-02-19 13:57:00,
2013-02-19 07:08:00,28.8,21.3,29.55,South,180,0.4,0.4,73,0.00,,,0.00,WUHU216HW,2013-02-19 14:08:00,
2013-02-19 07:18:00,28.8,21.3,29.55,WSW,248,0.0,1.1,73,0.00,,,0.00,WUHU216HW,2013-02-19 14:18:00,
2013-02-19 07:29:00,28.8,21.3,29.54,SSE,158,0.0,0.4,73,0.00,,,0.00,WUHU216HW,2013-02-19 14:29:00,
2013-02-19 07:39:00,28.8,21.3,29.55,SE,135,1.1,1.1,73,0.00,,,0.00,WUHU216HW,2013-02-19 14:39:00,
2013-02-19 07:49:00,28.6,21.1,29.55,SE,135,0.7,1.1,73,0.00,,,0.00,WUHU216HW,2013-02-19 14:49:00,
2013-02-19 07:59:00,28.6,21.1,29.55,ESE,113,1.1,1.1,73,0.00,,,0.00,WUHU216HW,2013-02-19 14:59:00,
2013-02-19 08:09:00,29.0,21.4,29.55,SE,135,1.1,1.1,73,0.00,,,0.00,WUHU216HW,2013-02-19 15:09:00,
2013-02-19 08:20:00,29.2,21.6,29.54,SE,135,0.0,0.7,73,0.00,,,0.00,WUHU216HW,2013-02-19 15:20:00,
2013-02-19 08:30:00,29.3,21.4,29.54,SSE,158,0.7,0.7,72,0.00,,,0.00,WUHU216HW,2013-02-19 15:30:00,
2013-02-19 08:41:00,29.5,21.9,29.54,South,180,0.9,0.9,73,0.00,,,0.00,WUHU216HW,2013-02-19 15:41:00,
2013-02-19 08:52:00,29.9,22.2,29.54,SSW,203,2.0,2.2,73,0.00,,,0.00,WUHU216HW,2013-02-19 15:52:00,
2013-02-19 09:03:00,30.2,22.6,29.53,SE,135,1.1,2.7,73,0.00,,,0.00,WUHU216HW,2013-02-19 16:03:00,
2013-02-19 09:13:00,30.6,23.0,29.53,North,0,0.4,2.0,73,0.00,,,0.00,WUHU216HW,2013-02-19 16:13:00,
2013-02-19 09:25:00,30.8,22.8,29.54,NW,315,0.0,0.4,72,0.00,,,0.00,WUHU216HW,2013-02-19 16:25:00,
2013-02-19 09:35:00,31.0,23.3,29.53,SSW,203,0.4,1.3,73,0.00,,,0.00,WUHU216HW,2013-02-19 16:35:00,
2013-02-19 09:45:00,31.5,23.9,29.54,SE,135,0.9,1.6,73,0.00,,,0.00,WUHU216HW,2013-02-19 16:45:00,
2013-02-19 09:56:00,32.0,24.0,29.53,South,180,1.6,1.6,72,0.00,,,0.00,WUHU216HW,2013-02-19 16:56:00,
2013-02-19 10:06:00,32.4,24.0,29.53,West,270,1.3,1.3,71,0.00,,,0.00,WUHU216HW,2013-02-19 17:06:00,
2013-02-19 10:17:00,32.6,24.2,29.53,SSE,158,0.2,1.1,71,0.00,,,0.00,WUHU216HW,2013-02-19 17:17:00,
2013-02-19 10:27:00,33.3,24.8,29.53,SSW,203,0.0,0.9,71,0.00,,,0.00,WUHU216HW,2013-02-19 17:27:00,
2013-02-19 10:38:00,34.2,25.4,29.53,South,180,0.4,1.1,70,0.00,,,0.00,WUHU216HW,2013-02-19 17:38:00,
2013-02-19 10:48:00,34.9,25.7,29.53,SE,135,0.9,0.9,69,0.00,,,0.00,WUHU216HW,2013-02-19 17:48:00,
2013-02-19 10:59:00,35.5,25.6,29.52,NNE,23,0.7,1.6,67,0.00,,,0.00,WUHU216HW,2013-02-19 17:59:00,
2013-02-19 11:09:00,35.5,25.6,29.52,North,0,0.0,1.1,67,0.00,,,0.00,WUHU216HW,2013-02-19 18:09:00,
2013-02-19 11:20:00,35.6,25.7,29.53,NNE,23,0.2,1.8,67,0.00,,,0.00,WUHU216HW,2013-02-19 18:20:00,
2013-02-19 11:30:00,36.0,25.8,29.52,NW,315,1.1,1.3,66,0.00,,,0.00,WUHU216HW,2013-02-19 18:30:00,
2013-02-19 11:41:00,36.2,25.6,29.52,North,0,1.8,2.2,65,0.00,,,0.00,WUHU216HW,2013-02-19 18:41:00,
2013-02-19 11:51:00,36.4,25.4,29.52,NW,315,0.2,2.2,64,0.00,,,0.00,WUHU216HW,2013-02-19 18:51:00,
2013-02-19 12:01:00,36.4,25.4,29.52,NNE,23,1.8,3.4,64,0.00,,,0.00,WUHU216HW,2013-02-19 19:01:00,
2013-02-19 12:12:00,36.7,25.7,29.52,North,0,1.3,1.8,64,0.00,,,0.00,WUHU216HW,2013-02-19 19:12:00,
2013-02-19 12:22:00,37.1,26.0,29.52,NNW,338,1.8,1.8,64,0.00,,,0.00,WUHU216HW,2013-02-19 19:22:00,
2013-02-19 12:32:00,37.4,26.4,29.52,East,90,1.1,2.0,64,0.00,,,0.00,WUHU216HW,2013-02-19 19:32:00,
2013-02-19 12:42:00,38.5,26.9,29.51,ESE,113,1.1,2.2,63,0.00,,,0.00,WUHU216HW,2013-02-19 19:42:00,
2013-02-19 12:52:00,40.0,27.9,29.51,NE,45,1.1,1.8,62,0.00,,,0.00,WUHU216HW,2013-02-19 19:52:00,
2013-02-19 13:02:00,40.5,27.3,29.50,North,0,4.0,4.0,59,0.00,,,0.00,WUHU216HW,2013-02-19 20:02:00,
2013-02-19 13:13:00,40.5,26.4,29.51,NNE,23,1.3,2.2,57,0.00,,,0.00,WUHU216HW,2013-02-19 20:13:00,
2013-02-19 13:23:00,40.9,25.8,29.50,West,270,0.2,2.5,55,0.00,,,0.00,WUHU216HW,2013-02-19 20:23:00,
2013-02-19 13:33:00,40.7,25.2,29.50,NNW,338,1.1,3.1,54,0.00,,,0.00,WUHU216HW,2013-02-19 20:33:00,
2013-02-19 13:43:00,40.7,24.3,29.50,North,0,2.0,2.9,52,0.00,,,0.00,WUHU216HW,2013-02-19 20:43:00,
2013-02-19 13:53:00,40.7,23.9,29.50,North,0,2.0,4.7,51,0.00,,,0.00,WUHU216HW,2013-02-19 20:53:00,
2013-02-19 14:03:00,41.0,23.8,29.50,North,0,0.4,4.7,50,0.00,,,0.00,WUHU216HW,2013-02-19 21:03:00,
2013-02-19 14:13:00,41.2,23.9,29.50,NNE,23,5.6,5.6,50,0.00,,,0.00,WUHU216HW,2013-02-19 21:13:00,
2013-02-19 14:23:00,41.2,24.4,29.50,NNW,338,1.8,5.4,51,0.00,,,0.00,WUHU216HW,2013-02-19 21:23:00,
2013-02-19 14:33:00,41.0,24.2,29.51,NNE,23,5.1,5.1,51,0.00,,,0.00,WUHU216HW,2013-02-19 21:33:00,
2013-02-19 14:45:00,41.2,23.9,29.51,NNW,338,2.5,6.3,50,0.00,,,0.00,WUHU216HW,2013-02-19 21:45:00,
2013-02-19 14:55:00,41.4,24.1,29.51,NNE,23,4.5,5.6,50,0.00,,,0.00,WUHU216HW,2013-02-19 21:55:00,
2013-02-19 15:05:00,41.4,24.1,29.51,NW,315,5.8,5.8,50,0.00,,,0.00,WUHU216HW,2013-02-19 22:05:00,
2013-02-19 15:15:00,41.2,23.4,29.51,North,0,2.5,6.0,49,0.00,,,0.00,WUHU216HW,2013-02-19 22:15:00,
2013-02-19 15:25:00,41.0,23.2,29.51,West,270,2.9,5.6,49,0.00,,,0.00,WUHU216HW,2013-02-19 22:25:00,
2013-02-19 15:35:00,41.0,23.8,29.51,NW,315,4.0,4.0,50,0.00,,,0.00,WUHU216HW,2013-02-19 22:35:00,
2013-02-19 15:45:00,41.0,23.8,29.52,North,0,1.1,3.6,50,0.00,,,0.00,WUHU216HW,2013-02-19 22:45:00,
2013-02-19 15:55:00,41.2,23.9,29.52,WNW,293,2.0,3.4,50,0.00,,,0.00,WUHU216HW,2013-02-19 22:55:00,
2013-02-19 16:06:00,41.4,24.1,29.52,North,0,1.1,3.4,50,0.00,,,0.00,WUHU216HW,2013-02-19 23:06:00,
2013-02-19 16:16:00,41.4,23.6,29.52,NE,45,2.0,3.6,49,0.00,,,0.00,WUHU216HW,2013-02-19 23:16:00,
2013-02-19 16:26:00,41.4,24.1,29.52,NW,315,1.8,3.4,50,0.00,,,0.00,WUHU216HW,2013-02-19 23:26:00,
2013-02-19 16:36:00,41.2,24.4,29.52,North,0,0.7,3.4,51,0.00,,,0.00,WUHU216HW,2013-02-19 23:36:00,
2013-02-19 16:47:00,41.4,24.6,29.52,North,0,1.6,2.2,51,0.00,,,0.00,WUHU216HW,2013-02-19 23:47:00,
2013-02-19 16:57:00,41.0,24.2,29.52,NE,45,3.4,4.7,51,0.00,,,0.00,WUHU216HW,2013-02-19 23:57:00,
2013-02-19 17:08:00,40.7,24.3,29.52,North,0,1.3,4.7,52,0.00,,,0.00,WUHU216HW,2013-02-20 00:08:00,
2013-02-19 17:18:00,40.5,24.6,29.53,North,0,1.8,3.1,53,0.00,,,0.00,WUHU216HW,2013-02-20 00:18:00,
2013-02-19 17:28:00,40.1,24.8,29.53,North,0,3.4,4.0,54,0.00,,,0.00,WUHU216HW,2013-02-20 00:28:00,
2013-02-19 17:38:00,40.0,24.6,29.53,North,0,1.3,3.1,54,0.00,,,0.00,WUHU216HW,2013-02-20 00:38:00,
2013-02-19 17:48:00,39.6,24.7,29.53,NNW,338,1.8,2.2,55,0.00,,,0.00,WUHU216HW,2013-02-20 00:48:00,
2013-02-19 17:58:00,39.2,24.8,29.53,WNW,293,0.4,2.2,56,0.00,,,0.00,WUHU216HW,2013-02-20 00:58:00,
2013-02-19 18:08:00,38.9,24.8,29.53,ENE,68,1.8,2.5,57,0.00,,,0.00,WUHU216HW,2013-02-20 01:08:00,
2013-02-19 18:18:00,38.7,25.1,29.54,NNE,23,0.2,2.0,58,0.00,,,0.00,WUHU216HW,2013-02-20 01:18:00,
2013-02-19 18:29:00,38.5,24.9,29.54,ENE,68,1.8,2.7,58,0.00,,,0.00,WUHU216HW,2013-02-20 01:29:00,
2013-02-19 18:39:00,38.3,25.2,29.54,East,90,2.7,3.8,59,0.00,,,0.00,WUHU216HW,2013-02-20 01:39:00,
2013-02-19 18:50:00,38.2,25.0,29.55,East,90,1.6,2.5,59,0.00,,,0.00,WUHU216HW,2013-02-20 01:50:00,
2013-02-19 19:00:00,38.0,25.3,29.55,SE,135,0.4,1.8,60,0.00,,,0.00,WUHU216HW,2013-02-20 02:00:00,
2013-02-19 19:10:00,38.0,25.8,29.55,ESE,113,0.0,0.4,61,0.00,,,0.00,WUHU216HW,2013-02-20 02:10:00,
2013-02-19 19:21:00,37.8,25.6,29.55,ENE,68,0.0,0.9,61,0.00,,,0.00,WUHU216HW,2013-02-20 02:21:00,
2013-02-19 19:31:00,37.8,25.9,29.56,WNW,293,0.7,0.7,62,0.00,,,0.00,WUHU216HW,2013-02-20 02:31:00,
2013-02-19 19:41:00,37.6,25.4,29.56,West,270,0.0,0.7,61,0.00,,,0.00,WUHU216HW,2013-02-20 02:41:00,
2013-02-19 19:52:00,37.4,25.6,29.56,ESE,113,1.1,1.1,62,0.00,,,0.00,WUHU216HW,2013-02-20 02:52:00,
2013-02-19 20:02:00,37.3,25.5,29.56,East,90,1.1,1.6,62,0.00,,,0.00,WUHU216HW,2013-02-20 03:02:00,
2013-02-19 20:12:00,37.1,25.7,29.56,NNE,23,2.5,2.5,63,0.00,,,0.00,WUHU216HW,2013-02-20 03:12:00,
2013-02-19 20:22:00,36.9,25.5,29.56,North,0,0.4,1.1,63,0.00,,,0.00,WUHU216HW,2013-02-20 03:22:00,
2013-02-19 20:32:00,36.7,25.3,29.57,North,0,0.0,0.9,63,0.00,,,0.00,WUHU216HW,2013-02-20 03:32:00,
2013-02-19 20:42:00,36.7,25.7,29.57,East,90,0.9,0.9,64,0.00,,,0.00,WUHU216HW,2013-02-20 03:42:00,
2013-02-19 20:52:00,36.7,25.7,29.57,NW,315,1.1,1.1,64,0.00,,,0.00,WUHU216HW,2013-02-20 03:52:00,
2013-02-19 21:03:00,36.4,25.4,29.57,WNW,293,0.2,0.7,64,0.00,,,0.00,WUHU216HW,2013-02-20 04:03:00,
2013-02-19 21:13:00,36.4,25.8,29.57,WNW,293,0.0,0.0,65,0.00,,,0.00,WUHU216HW,2013-02-20 04:13:00,
2013-02-19 21:23:00,36.0,25.4,29.58,WNW,293,0.2,0.7,65,0.00,,,0.00,WUHU216HW,2013-02-20 04:23:00,
2013-02-19 21:33:00,35.6,25.4,29.58,SSE,158,1.1,1.1,66,0.00,,,0.00,WUHU216HW,2013-02-20 04:33:00,
2013-02-19 21:44:00,35.5,25.2,29.58,SSE,158,0.9,1.1,66,0.00,,,0.00,WUHU216HW,2013-02-20 04:44:00,
2013-02-19 21:54:00,35.3,25.4,29.58,NE,45,0.7,1.1,67,0.00,,,0.00,WUHU216HW,2013-02-20 04:54:00,
2013-02-19 22:04:00,35.3,25.4,29.59,WNW,293,0.4,0.9,67,0.00,,,0.00,WUHU216HW,2013-02-20 05:04:00,
2013-02-19 22:14:00,35.3,25.4,29.59,NW,315,0.0,1.1,67,0.00,,,0.00,WUHU216HW,2013-02-20 05:14:00,
2013-02-19 22:25:00,35.1,25.2,29.59,ESE,113,1.6,1.6,67,0.00,,,0.00,WUHU216HW,2013-02-20 05:25:00,
2013-02-19 22:35:00,34.9,25.0,29.59,ENE,68,1.1,1.6,67,0.00,,,0.00,WUHU216HW,2013-02-20 05:35:00,
2013-02-19 22:46:00,34.6,24.7,29.60,ENE,68,0.0,1.1,67,0.00,,,0.00,WUHU216HW,2013-02-20 05:46:00,
2013-02-19 22:56:00,34.2,24.7,29.60,NNW,338,1.1,1.1,68,0.00,,,0.00,WUHU216HW,2013-02-20 05:56:00,
2013-02-19 23:06:00,33.8,24.7,29.60,NNE,23,0.4,2.2,69,0.00,,,0.00,WUHU216HW,2013-02-20 06:06:00,
2013-02-19 23:16:00,33.7,24.8,29.61,North,0,1.1,1.1,70,0.00,,,0.00,WUHU216HW,2013-02-20 06:16:00,
2013-02-19 23:26:00,33.5,24.3,29.61,North,0,0.4,2.0,69,0.00,,,0.00,WUHU216HW,2013-02-20 06:26:00,
2013-02-19 23:37:00,33.5,24.7,29.61,East,90,1.8,2.9,70,0.00,,,0.00,WUHU216HW,2013-02-20 06:37:00,
2013-02-19 23:47:00,33.3,24.6,29.61,North,0,1.1,4.7,70,0.00,,,0.00,WUHU216HW,2013-02-20 06:47:00,
2013-02-19 23:59:00,33.1,24.4,29.61,NE,45,1.8,2.5,70,0.00,,,0.00,WUHU216HW,2013-02-20 06:59:00,